Sonora Municipal Airport
KSOA : rendu visible

Aérodrome :











RETROUVEZ-NOUS SUR...

 
LOGIN :

S'inscrire | Disclaimer

   EN    FR    IT 

 









Légende :    VFR   VFR Marginal   IFR   IFR Intensif   IFR Très Intensif
Visi : 
Plafond : 
>= 8 km
>= 3000ft
5 à 8 km
1000 à 3000 ft
1500m à 5 km
500 à 1000 ft
800 à 1500m
200 à 500 ft
< 800m
< 200 ft
Symboles :   Orages  Brouillard  Fortes neiges  Fortes précipitations  Vent > 20 kt






- Altitude de l'aérodrome : 2140 ft


KSOA - Sonora Municipal

DERNIER METAR :
  • 100755Z AUTO 01010KT 6SM -RA OVC007 06/05 A3013 RMK AO2

METARs EXPIRÉS :
  • 100735Z AUTO 02010KT 9SM -RA OVC008 06/05 A3014 RMK AO2
  • 100715Z AUTO 01013KT 4SM -RA FEW001 BKN007 OVC031 06/05 A3012 RMK AO2
  • 100655Z AUTO 36010G15KT 5SM -RA FEW013 SCT032 BKN039 07/04 A3012 RMK AO2
  • 100635Z AUTO 01009G15KT 10SM CLR 08/03 A3011 RMK AO2
  • 100615Z AUTO 02009G16KT 10SM FEW065 09/03 A3009 RMK AO2
  • 100555Z AUTO 03013G19KT OVC065 10/03 A3008 RMK AO2
  • 100535Z AUTO 03010G15KT 10SM OVC065 10/02 A3008 RMK AO2
  • 100515Z AUTO 01014KT 10SM OVC065 10/02 A3008 RMK AO2

TAF KSOA
Valide du 10 à 08h jusqu'au 11 à 06h UTC


100747Z 1008/1106 02012KT 6SM -RA BR OVC008
FM101400 01010KT P6SM -RA OVC010
FM102200 01006KT P6SM SCT025 BKN035



MET'MAP, la Météo Aéronautique d'un coup d'oeil ! - Copyright ORBIFLY Décembre 2007 - Disclaimer

ORBIFLY MET'MAP TEAM :

Programmation & Développement : Alexandra Zaïnal
Sur une idée originale de : Baudouin d'Aumeries
Assistance à la programmation : Marc-Olivier Méhu
Soutien technique & logistique : Manuel Goepfert

Contact : metmap@orbifly.com




SOURCES & CREDITS :

   NOAA       Earth
Advisory